sensor_id;sensor_type;location;lat;lon;timestamp;P1;durP1;ratioP1;P2;durP2;ratioP2
30617;SDS011;17384;51.214;9.202;2022-08-19T00:02:01;66.80;;;37.97;;
30617;SDS011;17384;51.214;9.202;2022-08-19T00:04:31;60.13;;;37.53;;
30617;SDS011;17384;51.214;9.202;2022-08-19T00:06:58;52.25;;;34.60;;
30617;SDS011;17384;51.214;9.202;2022-08-19T00:09:24;52.60;;;35.42;;
30617;SDS011;17384;51.214;9.202;2022-08-19T00:11:50;57.58;;;33.60;;
30617;SDS011;17384;51.214;9.202;2022-08-19T00:14:16;60.65;;;36.28;;
30617;SDS011;17384;51.214;9.202;2022-08-19T00:16:42;56.50;;;34.85;;
30617;SDS011;17384;51.214;9.202;2022-08-19T00:19:08;51.20;;;34.97;;
30617;SDS011;17384;51.214;9.202;2022-08-19T00:21:33;46.72;;;31.83;;
30617;SDS011;17384;51.214;9.202;2022-08-19T00:24:03;50.72;;;32.42;;
30617;SDS011;17384;51.214;9.202;2022-08-19T00:26:28;51.20;;;32.15;;
30617;SDS011;17384;51.214;9.202;2022-08-19T00:28:54;41.93;;;28.53;;
30617;SDS011;17384;51.214;9.202;2022-08-19T00:31:19;45.03;;;28.95;;
30617;SDS011;17384;51.214;9.202;2022-08-19T00:33:45;40.88;;;28.10;;
30617;SDS011;17384;51.214;9.202;2022-08-19T00:36:11;35.58;;;26.05;;
30617;SDS011;17384;51.214;9.202;2022-08-19T00:38:37;40.33;;;25.33;;
30617;SDS011;17384;51.214;9.202;2022-08-19T00:41:03;38.78;;;24.27;;
30617;SDS011;17384;51.214;9.202;2022-08-19T00:43:29;33.42;;;23.77;;
30617;SDS011;17384;51.214;9.202;2022-08-19T00:45:55;32.50;;;22.83;;
30617;SDS011;17384;51.214;9.202;2022-08-19T00:48:20;30.17;;;22.80;;
30617;SDS011;17384;51.214;9.202;2022-08-19T00:50:46;39.17;;;22.63;;
30617;SDS011;17384;51.214;9.202;2022-08-19T00:53:13;32.10;;;21.27;;
30617;SDS011;17384;51.214;9.202;2022-08-19T00:55:40;32.03;;;21.05;;
30617;SDS011;17384;51.214;9.202;2022-08-19T00:58:08;29.95;;;22.35;;
30617;SDS011;17384;51.214;9.202;2022-08-19T01:00:34;34.95;;;20.80;;
30617;SDS011;17384;51.214;9.202;2022-08-19T01:03:08;32.97;;;21.10;;
30617;SDS011;17384;51.214;9.202;2022-08-19T01:05:34;28.25;;;20.75;;
30617;SDS011;17384;51.214;9.202;2022-08-19T01:08:00;28.80;;;20.58;;
30617;SDS011;17384;51.214;9.202;2022-08-19T01:10:27;26.35;;;19.55;;
30617;SDS011;17384;51.214;9.202;2022-08-19T01:12:53;26.80;;;18.25;;
30617;SDS011;17384;51.214;9.202;2022-08-19T01:15:21;32.05;;;20.30;;
30617;SDS011;17384;51.214;9.202;2022-08-19T01:17:47;26.33;;;19.58;;
30617;SDS011;17384;51.214;9.202;2022-08-19T01:20:14;25.20;;;18.63;;
30617;SDS011;17384;51.214;9.202;2022-08-19T01:25:05;30.03;;;19.23;;
30617;SDS011;17384;51.214;9.202;2022-08-19T01:27:38;31.08;;;20.30;;
30617;SDS011;17384;51.214;9.202;2022-08-19T01:30:04;33.65;;;18.65;;
30617;SDS011;17384;51.214;9.202;2022-08-19T01:32:30;36.63;;;18.98;;
30617;SDS011;17384;51.214;9.202;2022-08-19T01:34:56;33.50;;;20.33;;
30617;SDS011;17384;51.214;9.202;2022-08-19T01:37:21;30.37;;;19.73;;
30617;SDS011;17384;51.214;9.202;2022-08-19T01:39:46;27.80;;;19.20;;
30617;SDS011;17384;51.214;9.202;2022-08-19T01:42:12;23.27;;;17.50;;
30617;SDS011;17384;51.214;9.202;2022-08-19T01:44:40;29.20;;;17.43;;
30617;SDS011;17384;51.214;9.202;2022-08-19T01:47:08;24.95;;;19.27;;
30617;SDS011;17384;51.214;9.202;2022-08-19T01:49:36;32.75;;;19.65;;
30617;SDS011;17384;51.214;9.202;2022-08-19T01:52:02;23.35;;;17.17;;
30617;SDS011;17384;51.214;9.202;2022-08-19T01:54:28;27.30;;;18.00;;
30617;SDS011;17384;51.214;9.202;2022-08-19T01:56:57;24.13;;;18.88;;
30617;SDS011;17384;51.214;9.202;2022-08-19T01:59:23;32.30;;;19.48;;
30617;SDS011;17384;51.214;9.202;2022-08-19T02:01:49;28.95;;;18.52;;
30617;SDS011;17384;51.214;9.202;2022-08-19T02:04:14;32.23;;;19.20;;
30617;SDS011;17384;51.214;9.202;2022-08-19T02:06:40;25.92;;;17.83;;
30617;SDS011;17384;51.214;9.202;2022-08-19T02:09:06;31.23;;;18.63;;
30617;SDS011;17384;51.214;9.202;2022-08-19T02:11:33;27.48;;;18.80;;
30617;SDS011;17384;51.214;9.202;2022-08-19T02:14:01;27.73;;;17.33;;
30617;SDS011;17384;51.214;9.202;2022-08-19T02:16:27;31.10;;;18.90;;
30617;SDS011;17384;51.214;9.202;2022-08-19T02:18:52;25.88;;;17.95;;
30617;SDS011;17384;51.214;9.202;2022-08-19T02:21:19;27.50;;;18.63;;
30617;SDS011;17384;51.214;9.202;2022-08-19T02:23:45;25.38;;;18.67;;
30617;SDS011;17384;51.214;9.202;2022-08-19T02:26:10;30.77;;;19.17;;
30617;SDS011;17384;51.214;9.202;2022-08-19T02:28:36;26.15;;;17.77;;
30617;SDS011;17384;51.214;9.202;2022-08-19T02:31:02;27.98;;;18.85;;
30617;SDS011;17384;51.214;9.202;2022-08-19T02:33:27;29.98;;;18.17;;
30617;SDS011;17384;51.214;9.202;2022-08-19T02:35:53;30.95;;;18.20;;
30617;SDS011;17384;51.214;9.202;2022-08-19T02:38:18;26.43;;;18.53;;
30617;SDS011;17384;51.214;9.202;2022-08-19T02:40:51;27.42;;;18.35;;
30617;SDS011;17384;51.214;9.202;2022-08-19T02:43:17;23.75;;;16.00;;
30617;SDS011;17384;51.214;9.202;2022-08-19T02:45:43;22.98;;;16.27;;
30617;SDS011;17384;51.214;9.202;2022-08-19T02:48:08;24.77;;;17.23;;
30617;SDS011;17384;51.214;9.202;2022-08-19T02:50:36;28.20;;;17.42;;
30617;SDS011;17384;51.214;9.202;2022-08-19T02:53:02;26.00;;;16.65;;
30617;SDS011;17384;51.214;9.202;2022-08-19T02:55:27;24.17;;;17.00;;
30617;SDS011;17384;51.214;9.202;2022-08-19T02:57:52;28.47;;;17.53;;
30617;SDS011;17384;51.214;9.202;2022-08-19T03:00:18;29.67;;;18.53;;
30617;SDS011;17384;51.214;9.202;2022-08-19T03:02:43;27.23;;;17.70;;
30617;SDS011;17384;51.214;9.202;2022-08-19T03:05:09;40.80;;;17.63;;
30617;SDS011;17384;51.214;9.202;2022-08-19T03:07:35;27.50;;;18.75;;
30617;SDS011;17384;51.214;9.202;2022-08-19T03:10:01;28.13;;;18.63;;
30617;SDS011;17384;51.214;9.202;2022-08-19T03:12:26;33.03;;;18.90;;
30617;SDS011;17384;51.214;9.202;2022-08-19T03:14:52;26.92;;;18.30;;
30617;SDS011;17384;51.214;9.202;2022-08-19T03:17:17;23.50;;;18.17;;
30617;SDS011;17384;51.214;9.202;2022-08-19T03:19:43;27.27;;;18.33;;
30617;SDS011;17384;51.214;9.202;2022-08-19T03:22:08;29.35;;;18.67;;
30617;SDS011;17384;51.214;9.202;2022-08-19T03:24:34;25.10;;;17.80;;
30617;SDS011;17384;51.214;9.202;2022-08-19T03:26:59;26.33;;;19.52;;
30617;SDS011;17384;51.214;9.202;2022-08-19T03:29:28;25.20;;;18.03;;
30617;SDS011;17384;51.214;9.202;2022-08-19T03:31:53;28.15;;;18.42;;
30617;SDS011;17384;51.214;9.202;2022-08-19T03:34:24;28.50;;;18.15;;
30617;SDS011;17384;51.214;9.202;2022-08-19T03:36:53;33.83;;;18.50;;
30617;SDS011;17384;51.214;9.202;2022-08-19T03:39:20;24.27;;;15.82;;
30617;SDS011;17384;51.214;9.202;2022-08-19T03:41:46;27.60;;;17.42;;
30617;SDS011;17384;51.214;9.202;2022-08-19T03:44:19;25.90;;;18.45;;
30617;SDS011;17384;51.214;9.202;2022-08-19T03:46:49;24.48;;;16.20;;
30617;SDS011;17384;51.214;9.202;2022-08-19T03:49:15;25.27;;;19.08;;
30617;SDS011;17384;51.214;9.202;2022-08-19T03:51:41;30.65;;;18.50;;
30617;SDS011;17384;51.214;9.202;2022-08-19T03:54:08;30.55;;;19.38;;
30617;SDS011;17384;51.214;9.202;2022-08-19T03:56:34;27.20;;;18.73;;
30617;SDS011;17384;51.214;9.202;2022-08-19T03:59:00;29.55;;;18.38;;
30617;SDS011;17384;51.214;9.202;2022-08-19T04:01:26;26.17;;;17.53;;
30617;SDS011;17384;51.214;9.202;2022-08-19T04:03:52;28.65;;;18.83;;
30617;SDS011;17384;51.214;9.202;2022-08-19T04:06:20;27.80;;;18.92;;
30617;SDS011;17384;51.214;9.202;2022-08-19T04:08:47;28.45;;;19.13;;
30617;SDS011;17384;51.214;9.202;2022-08-19T04:11:13;27.00;;;18.90;;
30617;SDS011;17384;51.214;9.202;2022-08-19T04:13:39;29.35;;;19.00;;
30617;SDS011;17384;51.214;9.202;2022-08-19T04:16:05;26.95;;;18.40;;
30617;SDS011;17384;51.214;9.202;2022-08-19T04:18:31;29.92;;;18.77;;
30617;SDS011;17384;51.214;9.202;2022-08-19T04:20:57;22.05;;;16.52;;
30617;SDS011;17384;51.214;9.202;2022-08-19T04:23:22;27.55;;;17.85;;
30617;SDS011;17384;51.214;9.202;2022-08-19T04:25:48;24.70;;;17.53;;
30617;SDS011;17384;51.214;9.202;2022-08-19T04:28:13;26.48;;;17.48;;
30617;SDS011;17384;51.214;9.202;2022-08-19T04:30:40;27.35;;;16.92;;
30617;SDS011;17384;51.214;9.202;2022-08-19T04:33:05;24.35;;;17.00;;
30617;SDS011;17384;51.214;9.202;2022-08-19T04:35:37;23.75;;;17.17;;
30617;SDS011;17384;51.214;9.202;2022-08-19T04:38:03;27.52;;;16.73;;
30617;SDS011;17384;51.214;9.202;2022-08-19T04:40:28;30.02;;;19.58;;
30617;SDS011;17384;51.214;9.202;2022-08-19T04:43:12;29.55;;;19.13;;
30617;SDS011;17384;51.214;9.202;2022-08-19T04:45:39;26.85;;;18.25;;
30617;SDS011;17384;51.214;9.202;2022-08-19T04:48:05;28.55;;;18.60;;
30617;SDS011;17384;51.214;9.202;2022-08-19T04:50:30;33.22;;;19.30;;
30617;SDS011;17384;51.214;9.202;2022-08-19T04:52:55;22.50;;;16.67;;
30617;SDS011;17384;51.214;9.202;2022-08-19T04:55:21;26.80;;;17.80;;
30617;SDS011;17384;51.214;9.202;2022-08-19T04:57:46;26.20;;;18.05;;
30617;SDS011;17384;51.214;9.202;2022-08-19T05:00:11;23.02;;;18.00;;
30617;SDS011;17384;51.214;9.202;2022-08-19T05:02:37;24.77;;;17.83;;
30617;SDS011;17384;51.214;9.202;2022-08-19T05:05:02;26.00;;;17.58;;
30617;SDS011;17384;51.214;9.202;2022-08-19T05:07:28;26.02;;;18.00;;
30617;SDS011;17384;51.214;9.202;2022-08-19T05:09:54;26.20;;;16.38;;
30617;SDS011;17384;51.214;9.202;2022-08-19T05:12:20;25.25;;;18.45;;
30617;SDS011;17384;51.214;9.202;2022-08-19T05:14:46;23.10;;;16.73;;
30617;SDS011;17384;51.214;9.202;2022-08-19T05:17:12;25.98;;;17.35;;
30617;SDS011;17384;51.214;9.202;2022-08-19T05:19:37;22.75;;;15.80;;
30617;SDS011;17384;51.214;9.202;2022-08-19T05:22:21;23.35;;;17.10;;
30617;SDS011;17384;51.214;9.202;2022-08-19T05:25:05;22.70;;;16.77;;
30617;SDS011;17384;51.214;9.202;2022-08-19T05:27:31;23.98;;;16.58;;
30617;SDS011;17384;51.214;9.202;2022-08-19T05:29:57;26.30;;;16.88;;
30617;SDS011;17384;51.214;9.202;2022-08-19T05:32:22;21.90;;;16.17;;
30617;SDS011;17384;51.214;9.202;2022-08-19T05:34:48;24.17;;;16.42;;
30617;SDS011;17384;51.214;9.202;2022-08-19T05:37:14;25.35;;;15.98;;
30617;SDS011;17384;51.214;9.202;2022-08-19T05:39:39;22.42;;;15.35;;
30617;SDS011;17384;51.214;9.202;2022-08-19T05:42:06;19.92;;;13.93;;
30617;SDS011;17384;51.214;9.202;2022-08-19T05:44:33;26.17;;;13.88;;
30617;SDS011;17384;51.214;9.202;2022-08-19T05:46:59;22.58;;;14.07;;
30617;SDS011;17384;51.214;9.202;2022-08-19T05:49:25;20.30;;;13.07;;
30617;SDS011;17384;51.214;9.202;2022-08-19T05:51:52;20.35;;;13.20;;
30617;SDS011;17384;51.214;9.202;2022-08-19T05:54:17;22.92;;;12.43;;
30617;SDS011;17384;51.214;9.202;2022-08-19T05:56:43;23.30;;;12.88;;
30617;SDS011;17384;51.214;9.202;2022-08-19T05:59:11;18.88;;;12.02;;
30617;SDS011;17384;51.214;9.202;2022-08-19T06:01:38;19.02;;;12.35;;
30617;SDS011;17384;51.214;9.202;2022-08-19T06:04:04;16.48;;;11.93;;
30617;SDS011;17384;51.214;9.202;2022-08-19T06:06:30;19.05;;;11.00;;
30617;SDS011;17384;51.214;9.202;2022-08-19T06:08:55;16.70;;;10.95;;
30617;SDS011;17384;51.214;9.202;2022-08-19T06:11:22;14.98;;;10.38;;
30617;SDS011;17384;51.214;9.202;2022-08-19T06:13:49;14.95;;;9.57;;
30617;SDS011;17384;51.214;9.202;2022-08-19T06:16:16;13.10;;;9.20;;
30617;SDS011;17384;51.214;9.202;2022-08-19T06:18:51;14.10;;;8.93;;
30617;SDS011;17384;51.214;9.202;2022-08-19T06:21:23;12.00;;;8.43;;
30617;SDS011;17384;51.214;9.202;2022-08-19T06:23:50;11.37;;;8.67;;
30617;SDS011;17384;51.214;9.202;2022-08-19T06:26:17;15.50;;;8.75;;
30617;SDS011;17384;51.214;9.202;2022-08-19T06:28:43;16.20;;;8.93;;
30617;SDS011;17384;51.214;9.202;2022-08-19T06:31:18;12.38;;;9.05;;
30617;SDS011;17384;51.214;9.202;2022-08-19T06:33:45;18.27;;;10.18;;
30617;SDS011;17384;51.214;9.202;2022-08-19T06:36:19;18.13;;;9.77;;
30617;SDS011;17384;51.214;9.202;2022-08-19T06:38:45;14.82;;;9.25;;
30617;SDS011;17384;51.214;9.202;2022-08-19T06:41:10;11.00;;;8.90;;
30617;SDS011;17384;51.214;9.202;2022-08-19T06:43:36;14.68;;;8.90;;
30617;SDS011;17384;51.214;9.202;2022-08-19T06:46:02;16.08;;;8.82;;
30617;SDS011;17384;51.214;9.202;2022-08-19T06:48:28;17.65;;;8.80;;
30617;SDS011;17384;51.214;9.202;2022-08-19T06:50:54;14.15;;;8.63;;
30617;SDS011;17384;51.214;9.202;2022-08-19T06:53:19;13.35;;;8.35;;
30617;SDS011;17384;51.214;9.202;2022-08-19T06:55:45;21.20;;;8.00;;
30617;SDS011;17384;51.214;9.202;2022-08-19T06:58:10;12.95;;;7.53;;
30617;SDS011;17384;51.214;9.202;2022-08-19T07:00:36;14.43;;;7.35;;
30617;SDS011;17384;51.214;9.202;2022-08-19T07:03:02;11.75;;;6.85;;
30617;SDS011;17384;51.214;9.202;2022-08-19T07:05:27;12.73;;;7.95;;
30617;SDS011;17384;51.214;9.202;2022-08-19T07:07:53;13.30;;;6.78;;
30617;SDS011;17384;51.214;9.202;2022-08-19T07:10:18;12.35;;;7.50;;
30617;SDS011;17384;51.214;9.202;2022-08-19T07:12:44;8.70;;;6.95;;
30617;SDS011;17384;51.214;9.202;2022-08-19T07:15:10;12.85;;;8.15;;
30617;SDS011;17384;51.214;9.202;2022-08-19T07:17:36;13.32;;;7.65;;
30617;SDS011;17384;51.214;9.202;2022-08-19T07:20:04;10.50;;;6.40;;
30617;SDS011;17384;51.214;9.202;2022-08-19T07:22:30;10.07;;;7.43;;
30617;SDS011;17384;51.214;9.202;2022-08-19T07:24:56;10.13;;;7.30;;
30617;SDS011;17384;51.214;9.202;2022-08-19T07:27:21;11.15;;;7.82;;
30617;SDS011;17384;51.214;9.202;2022-08-19T07:29:46;12.47;;;8.20;;
30617;SDS011;17384;51.214;9.202;2022-08-19T07:32:11;12.20;;;7.53;;
30617;SDS011;17384;51.214;9.202;2022-08-19T07:34:37;9.77;;;6.63;;
30617;SDS011;17384;51.214;9.202;2022-08-19T07:37:03;9.07;;;6.30;;
30617;SDS011;17384;51.214;9.202;2022-08-19T07:39:29;12.07;;;6.60;;
30617;SDS011;17384;51.214;9.202;2022-08-19T07:41:55;12.40;;;7.45;;
30617;SDS011;17384;51.214;9.202;2022-08-19T07:44:21;10.25;;;6.88;;
30617;SDS011;17384;51.214;9.202;2022-08-19T07:46:50;12.20;;;7.53;;
30617;SDS011;17384;51.214;9.202;2022-08-19T07:49:16;9.55;;;6.50;;
30617;SDS011;17384;51.214;9.202;2022-08-19T07:51:52;8.48;;;6.18;;
30617;SDS011;17384;51.214;9.202;2022-08-19T07:54:18;10.82;;;5.90;;
30617;SDS011;17384;51.214;9.202;2022-08-19T07:56:44;8.48;;;6.55;;
30617;SDS011;17384;51.214;9.202;2022-08-19T07:59:09;7.72;;;5.97;;
30617;SDS011;17384;51.214;9.202;2022-08-19T08:01:35;11.32;;;6.50;;
30617;SDS011;17384;51.214;9.202;2022-08-19T08:04:01;10.02;;;7.40;;
30617;SDS011;17384;51.214;9.202;2022-08-19T08:06:45;8.30;;;6.40;;
30617;SDS011;17384;51.214;9.202;2022-08-19T08:09:30;10.98;;;6.20;;
30617;SDS011;17384;51.214;9.202;2022-08-19T08:11:58;9.60;;;6.43;;
30617;SDS011;17384;51.214;9.202;2022-08-19T08:14:26;12.73;;;6.20;;
30617;SDS011;17384;51.214;9.202;2022-08-19T08:16:52;9.38;;;6.22;;
30617;SDS011;17384;51.214;9.202;2022-08-19T08:19:18;8.55;;;5.95;;
30617;SDS011;17384;51.214;9.202;2022-08-19T08:21:44;8.77;;;5.15;;
30617;SDS011;17384;51.214;9.202;2022-08-19T08:24:10;8.93;;;5.63;;
30617;SDS011;17384;51.214;9.202;2022-08-19T08:26:35;9.95;;;6.10;;
30617;SDS011;17384;51.214;9.202;2022-08-19T08:29:01;9.00;;;6.32;;
30617;SDS011;17384;51.214;9.202;2022-08-19T08:31:26;8.43;;;5.38;;
30617;SDS011;17384;51.214;9.202;2022-08-19T08:33:55;8.80;;;5.53;;
30617;SDS011;17384;51.214;9.202;2022-08-19T08:36:21;9.15;;;5.50;;
30617;SDS011;17384;51.214;9.202;2022-08-19T08:38:46;7.32;;;6.05;;
30617;SDS011;17384;51.214;9.202;2022-08-19T08:43:51;12.88;;;5.95;;
30617;SDS011;17384;51.214;9.202;2022-08-19T08:48:47;8.07;;;6.07;;
30617;SDS011;17384;51.214;9.202;2022-08-19T08:51:16;9.45;;;5.07;;
30617;SDS011;17384;51.214;9.202;2022-08-19T08:53:43;7.07;;;4.53;;
30617;SDS011;17384;51.214;9.202;2022-08-19T08:56:10;6.78;;;5.60;;
30617;SDS011;17384;51.214;9.202;2022-08-19T09:01:21;8.25;;;4.97;;
30617;SDS011;17384;51.214;9.202;2022-08-19T09:03:47;8.10;;;6.03;;
30617;SDS011;17384;51.214;9.202;2022-08-19T09:06:14;7.97;;;5.13;;
30617;SDS011;17384;51.214;9.202;2022-08-19T09:11:40;7.13;;;4.88;;
30617;SDS011;17384;51.214;9.202;2022-08-19T09:16:46;9.68;;;6.25;;
30617;SDS011;17384;51.214;9.202;2022-08-19T09:19:13;8.70;;;5.38;;
30617;SDS011;17384;51.214;9.202;2022-08-19T09:21:38;8.17;;;5.67;;
30617;SDS011;17384;51.214;9.202;2022-08-19T09:24:04;7.53;;;5.10;;
30617;SDS011;17384;51.214;9.202;2022-08-19T09:26:30;8.00;;;5.45;;
30617;SDS011;17384;51.214;9.202;2022-08-19T09:28:56;6.00;;;4.50;;
30617;SDS011;17384;51.214;9.202;2022-08-19T09:31:24;10.55;;;6.13;;
30617;SDS011;17384;51.214;9.202;2022-08-19T09:33:49;16.63;;;6.40;;
30617;SDS011;17384;51.214;9.202;2022-08-19T09:36:16;7.50;;;5.20;;
30617;SDS011;17384;51.214;9.202;2022-08-19T09:38:42;13.63;;;6.45;;
30617;SDS011;17384;51.214;9.202;2022-08-19T09:41:08;6.03;;;5.10;;
30617;SDS011;17384;51.214;9.202;2022-08-19T09:43:34;6.50;;;4.13;;
30617;SDS011;17384;51.214;9.202;2022-08-19T09:46:02;7.80;;;4.80;;
30617;SDS011;17384;51.214;9.202;2022-08-19T09:48:27;6.72;;;4.43;;
30617;SDS011;17384;51.214;9.202;2022-08-19T09:50:53;9.23;;;5.22;;
30617;SDS011;17384;51.214;9.202;2022-08-19T09:53:19;7.75;;;4.53;;
30617;SDS011;17384;51.214;9.202;2022-08-19T09:55:48;7.20;;;4.72;;
30617;SDS011;17384;51.214;9.202;2022-08-19T09:58:13;10.45;;;4.97;;
30617;SDS011;17384;51.214;9.202;2022-08-19T10:00:38;6.43;;;4.43;;
30617;SDS011;17384;51.214;9.202;2022-08-19T10:03:04;5.38;;;3.67;;
30617;SDS011;17384;51.214;9.202;2022-08-19T10:05:29;5.97;;;5.20;;
30617;SDS011;17384;51.214;9.202;2022-08-19T10:10:38;5.47;;;4.10;;
30617;SDS011;17384;51.214;9.202;2022-08-19T10:13:03;11.25;;;4.28;;
30617;SDS011;17384;51.214;9.202;2022-08-19T10:15:29;9.55;;;3.97;;
30617;SDS011;17384;51.214;9.202;2022-08-19T10:17:54;7.13;;;4.70;;
30617;SDS011;17384;51.214;9.202;2022-08-19T10:20:20;5.38;;;3.25;;
30617;SDS011;17384;51.214;9.202;2022-08-19T10:22:46;5.82;;;3.65;;
30617;SDS011;17384;51.214;9.202;2022-08-19T10:25:12;7.38;;;4.05;;
30617;SDS011;17384;51.214;9.202;2022-08-19T10:27:39;4.50;;;3.35;;
30617;SDS011;17384;51.214;9.202;2022-08-19T10:30:05;5.80;;;3.60;;
30617;SDS011;17384;51.214;9.202;2022-08-19T10:32:31;7.82;;;4.28;;
30617;SDS011;17384;51.214;9.202;2022-08-19T10:34:56;13.50;;;3.83;;
30617;SDS011;17384;51.214;9.202;2022-08-19T10:37:22;4.53;;;3.13;;
30617;SDS011;17384;51.214;9.202;2022-08-19T10:39:47;5.15;;;3.55;;
30617;SDS011;17384;51.214;9.202;2022-08-19T10:42:12;5.80;;;3.08;;
30617;SDS011;17384;51.214;9.202;2022-08-19T10:44:38;4.57;;;3.13;;
30617;SDS011;17384;51.214;9.202;2022-08-19T10:47:04;8.93;;;3.28;;
30617;SDS011;17384;51.214;9.202;2022-08-19T10:49:29;7.18;;;2.72;;
30617;SDS011;17384;51.214;9.202;2022-08-19T10:51:55;8.38;;;3.58;;
30617;SDS011;17384;51.214;9.202;2022-08-19T10:54:39;4.13;;;3.50;;
30617;SDS011;17384;51.214;9.202;2022-08-19T10:57:23;3.22;;;2.63;;
30617;SDS011;17384;51.214;9.202;2022-08-19T10:59:53;4.50;;;3.25;;
30617;SDS011;17384;51.214;9.202;2022-08-19T11:02:19;4.70;;;3.00;;
30617;SDS011;17384;51.214;9.202;2022-08-19T11:04:44;8.27;;;2.77;;
30617;SDS011;17384;51.214;9.202;2022-08-19T11:07:09;6.73;;;2.90;;
30617;SDS011;17384;51.214;9.202;2022-08-19T11:09:39;7.20;;;3.25;;
30617;SDS011;17384;51.214;9.202;2022-08-19T11:12:05;3.78;;;2.90;;
30617;SDS011;17384;51.214;9.202;2022-08-19T11:14:31;4.35;;;2.40;;
30617;SDS011;17384;51.214;9.202;2022-08-19T11:16:58;4.30;;;2.50;;
30617;SDS011;17384;51.214;9.202;2022-08-19T11:19:23;4.72;;;3.13;;
30617;SDS011;17384;51.214;9.202;2022-08-19T11:21:49;3.85;;;2.35;;
30617;SDS011;17384;51.214;9.202;2022-08-19T11:24:18;5.65;;;3.30;;
30617;SDS011;17384;51.214;9.202;2022-08-19T11:26:45;3.42;;;2.45;;
30617;SDS011;17384;51.214;9.202;2022-08-19T11:29:11;7.65;;;2.85;;
30617;SDS011;17384;51.214;9.202;2022-08-19T11:31:41;6.68;;;3.15;;
30617;SDS011;17384;51.214;9.202;2022-08-19T11:34:08;5.57;;;2.95;;
30617;SDS011;17384;51.214;9.202;2022-08-19T11:36:34;7.93;;;3.70;;
30617;SDS011;17384;51.214;9.202;2022-08-19T11:39:02;4.47;;;2.72;;
30617;SDS011;17384;51.214;9.202;2022-08-19T11:41:28;7.35;;;2.83;;
30617;SDS011;17384;51.214;9.202;2022-08-19T11:43:53;4.75;;;3.35;;
30617;SDS011;17384;51.214;9.202;2022-08-19T11:46:20;4.07;;;2.55;;
30617;SDS011;17384;51.214;9.202;2022-08-19T11:48:46;4.68;;;3.42;;
30617;SDS011;17384;51.214;9.202;2022-08-19T11:51:14;7.07;;;3.40;;
30617;SDS011;17384;51.214;9.202;2022-08-19T11:53:40;7.80;;;3.30;;
30617;SDS011;17384;51.214;9.202;2022-08-19T11:56:06;7.10;;;3.63;;
30617;SDS011;17384;51.214;9.202;2022-08-19T11:58:33;2.40;;;2.20;;
30617;SDS011;17384;51.214;9.202;2022-08-19T12:00:59;5.47;;;3.10;;
30617;SDS011;17384;51.214;9.202;2022-08-19T12:03:24;4.78;;;3.05;;
30617;SDS011;17384;51.214;9.202;2022-08-19T12:05:50;5.57;;;3.07;;
30617;SDS011;17384;51.214;9.202;2022-08-19T12:08:15;4.85;;;3.22;;
30617;SDS011;17384;51.214;9.202;2022-08-19T12:10:41;8.35;;;3.08;;
30617;SDS011;17384;51.214;9.202;2022-08-19T12:13:07;5.38;;;2.70;;
30617;SDS011;17384;51.214;9.202;2022-08-19T12:15:36;7.20;;;3.63;;
30617;SDS011;17384;51.214;9.202;2022-08-19T12:18:02;3.92;;;3.05;;
30617;SDS011;17384;51.214;9.202;2022-08-19T12:20:28;5.82;;;3.55;;
30617;SDS011;17384;51.214;9.202;2022-08-19T12:22:53;5.63;;;2.60;;
30617;SDS011;17384;51.214;9.202;2022-08-19T12:25:18;4.95;;;3.67;;
30617;SDS011;17384;51.214;9.202;2022-08-19T12:27:43;4.97;;;2.88;;
30617;SDS011;17384;51.214;9.202;2022-08-19T12:30:10;5.65;;;3.20;;
30617;SDS011;17384;51.214;9.202;2022-08-19T12:32:36;4.18;;;3.10;;
30617;SDS011;17384;51.214;9.202;2022-08-19T12:35:01;6.07;;;3.40;;
30617;SDS011;17384;51.214;9.202;2022-08-19T12:37:27;5.47;;;3.40;;
30617;SDS011;17384;51.214;9.202;2022-08-19T12:39:52;7.67;;;3.30;;
30617;SDS011;17384;51.214;9.202;2022-08-19T12:42:18;6.33;;;3.33;;
30617;SDS011;17384;51.214;9.202;2022-08-19T12:44:43;5.75;;;3.63;;
30617;SDS011;17384;51.214;9.202;2022-08-19T12:47:10;4.47;;;3.05;;
30617;SDS011;17384;51.214;9.202;2022-08-19T12:49:37;7.90;;;3.67;;
30617;SDS011;17384;51.214;9.202;2022-08-19T12:52:04;6.97;;;3.97;;
30617;SDS011;17384;51.214;9.202;2022-08-19T12:54:30;5.93;;;3.80;;
30617;SDS011;17384;51.214;9.202;2022-08-19T12:56:56;7.90;;;3.78;;
30617;SDS011;17384;51.214;9.202;2022-08-19T12:59:21;6.78;;;4.38;;
30617;SDS011;17384;51.214;9.202;2022-08-19T13:01:47;6.47;;;4.53;;
30617;SDS011;17384;51.214;9.202;2022-08-19T13:04:12;5.30;;;4.50;;
30617;SDS011;17384;51.214;9.202;2022-08-19T13:06:37;5.43;;;3.83;;
30617;SDS011;17384;51.214;9.202;2022-08-19T13:09:03;9.70;;;4.30;;
30617;SDS011;17384;51.214;9.202;2022-08-19T13:11:28;7.13;;;4.35;;
30617;SDS011;17384;51.214;9.202;2022-08-19T13:13:57;6.68;;;4.07;;
30617;SDS011;17384;51.214;9.202;2022-08-19T13:16:22;9.27;;;4.97;;
30617;SDS011;17384;51.214;9.202;2022-08-19T13:18:48;6.43;;;4.60;;
30617;SDS011;17384;51.214;9.202;2022-08-19T13:21:15;8.00;;;3.95;;
30617;SDS011;17384;51.214;9.202;2022-08-19T13:23:40;6.27;;;4.00;;
30617;SDS011;17384;51.214;9.202;2022-08-19T13:26:06;8.35;;;3.80;;
30617;SDS011;17384;51.214;9.202;2022-08-19T13:28:32;10.82;;;5.15;;
30617;SDS011;17384;51.214;9.202;2022-08-19T13:31:20;6.25;;;4.32;;
30617;SDS011;17384;51.214;9.202;2022-08-19T13:34:04;6.78;;;4.18;;
30617;SDS011;17384;51.214;9.202;2022-08-19T13:36:31;6.03;;;3.80;;
30617;SDS011;17384;51.214;9.202;2022-08-19T13:38:56;3.97;;;3.38;;
30617;SDS011;17384;51.214;9.202;2022-08-19T13:41:22;9.57;;;3.70;;
30617;SDS011;17384;51.214;9.202;2022-08-19T13:43:48;7.95;;;3.92;;
30617;SDS011;17384;51.214;9.202;2022-08-19T13:46:14;5.38;;;4.03;;
30617;SDS011;17384;51.214;9.202;2022-08-19T13:48:40;6.97;;;4.57;;
30617;SDS011;17384;51.214;9.202;2022-08-19T13:51:08;3.83;;;3.28;;
30617;SDS011;17384;51.214;9.202;2022-08-19T13:53:35;5.88;;;3.53;;
30617;SDS011;17384;51.214;9.202;2022-08-19T13:56:04;6.13;;;4.07;;
30617;SDS011;17384;51.214;9.202;2022-08-19T13:58:30;5.50;;;4.00;;
30617;SDS011;17384;51.214;9.202;2022-08-19T14:00:56;6.75;;;4.25;;
30617;SDS011;17384;51.214;9.202;2022-08-19T14:03:22;6.85;;;4.72;;
30617;SDS011;17384;51.214;9.202;2022-08-19T14:05:48;6.47;;;4.05;;
30617;SDS011;17384;51.214;9.202;2022-08-19T14:08:13;6.40;;;3.72;;
30617;SDS011;17384;51.214;9.202;2022-08-19T14:10:39;8.07;;;4.30;;
30617;SDS011;17384;51.214;9.202;2022-08-19T14:13:04;5.93;;;4.27;;
30617;SDS011;17384;51.214;9.202;2022-08-19T14:15:30;5.80;;;4.13;;
30617;SDS011;17384;51.214;9.202;2022-08-19T14:17:55;6.45;;;3.40;;
30617;SDS011;17384;51.214;9.202;2022-08-19T14:20:21;4.40;;;3.70;;
30617;SDS011;17384;51.214;9.202;2022-08-19T14:22:46;4.25;;;3.17;;
30617;SDS011;17384;51.214;9.202;2022-08-19T14:25:13;5.00;;;3.55;;
30617;SDS011;17384;51.214;9.202;2022-08-19T14:27:39;6.65;;;4.20;;
30617;SDS011;17384;51.214;9.202;2022-08-19T14:30:06;8.68;;;3.80;;
30617;SDS011;17384;51.214;9.202;2022-08-19T14:32:32;4.80;;;3.28;;
30617;SDS011;17384;51.214;9.202;2022-08-19T14:34:59;8.15;;;3.55;;
30617;SDS011;17384;51.214;9.202;2022-08-19T14:37:25;4.65;;;3.63;;
30617;SDS011;17384;51.214;9.202;2022-08-19T14:39:51;3.10;;;2.90;;
30617;SDS011;17384;51.214;9.202;2022-08-19T14:42:16;4.65;;;3.10;;
30617;SDS011;17384;51.214;9.202;2022-08-19T14:44:42;4.43;;;3.45;;
30617;SDS011;17384;51.214;9.202;2022-08-19T14:47:07;3.90;;;3.50;;
30617;SDS011;17384;51.214;9.202;2022-08-19T14:52:02;3.70;;;2.83;;
30617;SDS011;17384;51.214;9.202;2022-08-19T14:54:28;4.85;;;3.47;;